Terminal Aerodrome Forecast
Issued by NWS

Home | Current Version | Previous Version | Text Only | Print | Product List | Glossary On
Versions: 1 2 3 4 5 6 7 8 9 10 11 12 13 14 15 16 17 18
000
FTUS43 KDTX 282054 AAB
TAFYIP
TAF AMD
KYIP 282054Z 2821/2918 21009G18KT P6SM VCTS SCT060CB BKN100
     FM282300 20006KT P6SM SCT100 BKN200
     FM291500 19012KT P6SM BKN050 BKN250=

USA.gov is the U.S. government's official web portal to all federal, state and local government web resources and services.